Dutch
Home     News     Corporate     Events & Tours     Flight ops     Crew centre      
My transavia virtual    Join us    Last logs    Who is flying    Forum    Software    Training    VRTS     
 

view flightdata
view flightplan
view OFP
view flightlog



flightdata:
pilot: Willem van Antwerpen
flight: TRA071
from: EHEH (Eindhoven)
to: ELLX (Luxembourg)
date: 31-03-2019
departure: 13:21z
arrival: 14:06z
duration: 0:44
aircraft: B737 (PHHSA)
distance: 151 NM
touchdown: no landing



flightplan:
-(FPL-TRA071-IS
-B737/M-SDEHPRWXY/EHLSB1
-EHEH1326
-N0250F110 LNO5J LNO LNO5H
-ELLX0001 EBBR
-PBN/B1D1LO1 DOF/190331 REG/PHHSA SEL/JQDH CODE/4841A5 OPR/TRA RVR/200 RMK/TCAS)



operational flightplan (OFP):
NO LOADSHEET AVAILABLE

WEATHER BRIEFING - GENERATED 31 MAR 2019 13:11 UTC
--------------------------------------------------------------------------------

EHEH ELLX EBBR

--------------------------------------------------------------------------------
ORIGIN: EHEH (EINDHOVEN)
--------------------------------------------------------------------------------
EHEH 311255Z AUTO 03013KT 360V080 9999 BKN023 BKN180 12/05 Q1024 WHT 05012KT 9999 BKN022

EHEH 311138Z 3112/0118 05015KT 9999 BKN020
      BECMG 3112/3114 FEW025
      BECMG 0108/0111 09010KT


--------------------------------------------------------------------------------
DESTINATION: ELLX (LUXEMBOURG)
--------------------------------------------------------------------------------
ELLX 311250Z 04007KT 010V100 9999 FEW068TCU 17/00 Q1020 NOSIG

ELLX 311100Z 3112/0118 06007KT CAVOK
      TEMPO 3112/3118 5000 SHRA SCT030 PROB40
      TEMPO 3112/3118 06010G25KT 4000 TSRA SCT030CB


--------------------------------------------------------------------------------
ALTERNATE: EBBR (BRUSSELS)
--------------------------------------------------------------------------------
EBBR 311250Z 05010KT CAVOK 13/07 Q1023 NOSIG

EBBR 311120Z 3112/0118 05012KT 9999 SCT025=  EKYT 311121Z 3112/0112 31014KT 9999 FEW020
      BECMG 3115/3118 31005KT
      BECMG 0100/0103 VRB03KT
      BECMG 0109/0112 18010KT


NOTAM BRIEFING - GENERATED 31 MAR 2019 13:12 UTC
--------------------------------------------------------------------------------

EHEH ELLX EBBR

--------------------------------------------------------------------------------
GLOBAL TRANSAVIA.COM VIRTUAL NOTAMS
--------------------------------------------------------------------------------
REF:NIL PLEASE CONTACT OPERATIONS IN CASE OF STRUCTURAL FLIGHTPLAN ERRORS ON FLIGHT-OPS@TRANSAVIA-VIRTUAL.COM
VALID:UFN

REF:NIL
PLEASE CHECK ACARS EVERY 10 MINUTES WHEN FLYING WITH SOUND OFF. AN NEW ACARS MESSAGE PRODUCE A SOUND SIGNAL UNTILL ITS READ. FLOWCONTROL DON'T RECEIVE MUCH REACTION ON OUTGOING ACARS MESSAGES ACCORDING FLIGHTSTATUS.
SOURCE: SPL/HV/OCC/
END VALID: UFN

REF:NIL
PLEASE CONTACT FLOWCONTROL IN CASE OF PROBLEMS WITH ROUTINGS
SOURCE: SPL/HV/OCC/
END VALID: UFN

REF:NIL
IN CASE OF ENGINE-OUT FLY V2 OR V2 20 MAX. UNTIL ABOVE MSA.
LEVEL-OFF AT AN ALTITUDE ROUNDED OFF TO THE FIRST 1000 FT OF THE HIGHEST MSA.
E.G: MSA EHAM; 1.7 AND 2.3 LEVEL-OFF 3000 FT. AFTER LANDING MAKE A REP TO OCC ON 131.975
SOURCE:SPL/HV/OCC
END VALID:UFN



flightlog:
Pilot : Willem van  Antwerpen
Flight: TRA071
From  : EHEH Eindhoven
To    : ELLX Luxembourg

[FLIGHTLOG] 1.5.4
31-03-2019 13:11:51z, logging started
31-03-2019 13:21:32z, parking brake released
31-03-2019 13:21:59z, flaps set to 12%
31-03-2019 13:22:00z, flaps set to 25%
31-03-2019 13:22:01z, flaps set to 37%
31-03-2019 13:26:49z, pos report: 021 KIAS, 00 063 ft, heading 211, winds 056 @ 13 kts
31-03-2019 13:29:57z, take-off at 148 KIAS
31-03-2019 13:29:57z, pos report: 148 KIAS, 00 070 ft, heading 033, winds 038 @ 14 kts
31-03-2019 13:29:57z, flying online @ VATSIM (TRA071)
31-03-2019 13:29:57z, position: EHEH - Eindhoven
31-03-2019 13:30:35z, flaps set to 25%
31-03-2019 13:30:36z, flaps set to 12%
31-03-2019 13:30:45z, flaps set to 0%
31-03-2019 13:41:50z, pos report: 279 KIAS, 11 276 ft, heading 194, winds 084 @ 04 kts
31-03-2019 13:54:23z, deployed spoilers
31-03-2019 13:56:05z, flaps set to 12%
31-03-2019 13:56:10z, flaps set to 25%
31-03-2019 13:56:19z, flaps set to 37%
31-03-2019 13:56:32z, lowered gear at 163 KIAS and 1984 ft AGL
31-03-2019 13:56:37z, flaps set to 50%
31-03-2019 13:56:41z, flaps set to 62%
31-03-2019 13:56:42z, retracted spoilers
31-03-2019 13:56:47z, flaps set to 75%
31-03-2019 13:56:51z, pos report: 160 KIAS, 03 050 ft, heading 214, winds 099 @ 07 kts
31-03-2019 13:58:41z, flaps set to 87%
31-03-2019 13:59:01z, below glideslope
31-03-2019 13:59:24z, intercepted localizer
31-03-2019 14:00:43z, on glideslope
31-03-2019 14:00:57z, flaps set to 100%
31-03-2019 14:01:53z, below glideslope
31-03-2019 14:02:44z, on glideslope
31-03-2019 14:03:03z, above glideslope
31-03-2019 14:03:06z, below glideslope
31-03-2019 14:03:12z, above glideslope
31-03-2019 14:03:14z, on glideslope
31-03-2019 14:03:33z, deployed spoilers
31-03-2019 14:03:51z, retracted spoilers
31-03-2019 14:04:04z, flaps set to 87%
31-03-2019 14:04:06z, flaps set to 75%
31-03-2019 14:04:09z, flaps set to 62%
31-03-2019 14:04:17z, flaps set to 50%
31-03-2019 14:04:22z, flaps set to 37%
31-03-2019 14:04:30z, flaps set to 25%
31-03-2019 14:04:34z, flaps set to 12%
31-03-2019 14:04:56z, flaps set to 0%
31-03-2019 14:06:26z, parking brake set
31-03-2019 14:06:38z, logging ended

©2009-2019, transavia virtual. All rights reserved. This website is only meant for simulation purposes.
This website is not owned by transavia, nor is transavia responsible for the content of this website.